createdAt,value
2023-12-11T00:01:55.764Z,31.60
2023-12-11T00:04:58.701Z,32.58
2023-12-11T00:08:01.131Z,38.20
2023-12-11T00:11:03.963Z,36.35
2023-12-11T00:14:07.541Z,39.00
2023-12-11T00:17:10.457Z,35.10
2023-12-11T00:20:13.034Z,37.28
2023-12-11T00:23:15.733Z,26.48
2023-12-11T00:26:18.562Z,32.20
2023-12-11T00:29:21.321Z,34.73
2023-12-11T00:32:23.763Z,31.70
2023-12-11T00:35:26.475Z,31.98
2023-12-11T00:38:28.896Z,32.47
2023-12-11T00:41:31.628Z,26.12
2023-12-11T00:44:34.056Z,13.47
2023-12-11T00:47:37.138Z,15.40
2023-12-11T00:50:39.553Z,27.40
2023-12-11T00:53:42.286Z,27.08
2023-12-11T00:56:44.751Z,32.42
2023-12-11T00:59:47.529Z,20.70
2023-12-11T01:02:49.955Z,22.40
2023-12-11T01:05:52.808Z,33.35
2023-12-11T01:08:55.247Z,27.55
2023-12-11T01:11:58.036Z,21.08
2023-12-11T01:15:00.466Z,30.93
2023-12-11T01:18:03.375Z,19.37
2023-12-11T01:21:05.887Z,25.98
2023-12-11T01:24:09.112Z,30.73
2023-12-11T01:27:11.620Z,30.58
2023-12-11T01:30:14.458Z,33.33
2023-12-11T01:33:17.084Z,26.23
2023-12-11T01:36:19.839Z,20.73
2023-12-11T01:39:22.289Z,17.62
2023-12-11T01:42:24.961Z,29.02
2023-12-11T01:45:27.345Z,35.07
2023-12-11T01:48:30.443Z,31.23
2023-12-11T01:51:33.160Z,24.87
2023-12-11T01:54:37.565Z,38.30
2023-12-11T01:57:40.017Z,30.90
2023-12-11T02:00:43.133Z,29.13
2023-12-11T02:03:46.023Z,30.13
2023-12-11T02:06:49.230Z,19.77
2023-12-11T02:09:51.757Z,23.00
2023-12-11T02:12:54.731Z,22.08
2023-12-11T02:15:57.670Z,17.10
2023-12-11T02:19:00.619Z,19.90
2023-12-11T02:22:07.220Z,27.33
2023-12-11T02:25:10.302Z,19.30
2023-12-11T02:28:13.007Z,16.48
2023-12-11T02:31:16.126Z,23.30
2023-12-11T02:34:18.621Z,30.03
2023-12-11T02:37:21.447Z,13.40
2023-12-11T02:40:23.860Z,26.58
2023-12-11T02:43:26.711Z,25.80
2023-12-11T02:46:29.160Z,26.53
2023-12-11T02:49:31.936Z,29.37
2023-12-11T02:52:34.402Z,23.02
2023-12-11T02:55:37.096Z,30.08
2023-12-11T02:58:39.638Z,24.12
2023-12-11T03:01:42.496Z,22.77
2023-12-11T03:04:45.076Z,22.70
2023-12-11T03:07:48.150Z,24.08
2023-12-11T03:10:50.802Z,28.25
2023-12-11T03:13:53.547Z,19.12
2023-12-11T03:16:55.945Z,22.37
2023-12-11T03:20:00.490Z,23.00
2023-12-11T03:23:03.133Z,22.52
2023-12-11T03:26:05.875Z,16.37
2023-12-11T03:29:08.325Z,20.58
2023-12-11T03:32:11.065Z,19.50
2023-12-11T03:35:13.504Z,24.50
2023-12-11T03:38:16.203Z,23.20
2023-12-11T03:41:18.620Z,19.33
2023-12-11T03:44:21.333Z,22.20
2023-12-11T03:47:24.872Z,24.93
2023-12-11T03:50:27.675Z,27.43
2023-12-11T03:53:30.105Z,28.90
2023-12-11T03:56:32.795Z,20.30
2023-12-11T03:59:35.205Z,24.65
2023-12-11T04:02:38.037Z,20.43
2023-12-11T04:05:40.821Z,21.47
2023-12-11T04:08:43.564Z,27.52
2023-12-11T04:11:46.326Z,17.20
2023-12-11T04:14:48.805Z,31.00
2023-12-11T04:17:51.544Z,16.50
2023-12-11T04:20:53.965Z,26.10
2023-12-11T04:23:57.207Z,23.83
2023-12-11T04:26:59.763Z,25.85
2023-12-11T04:30:02.563Z,26.23
2023-12-11T04:33:05.203Z,27.93
2023-12-11T04:36:09.787Z,22.23
2023-12-11T04:39:13.835Z,21.52
2023-12-11T04:42:16.732Z,25.95
2023-12-11T04:45:19.138Z,16.45
2023-12-11T04:48:21.898Z,24.03
2023-12-11T04:51:24.363Z,25.60
2023-12-11T04:54:27.116Z,18.08
2023-12-11T04:57:30.126Z,18.55
2023-12-11T05:00:33.164Z,25.33
2023-12-11T05:03:35.841Z,13.57
2023-12-11T05:06:38.635Z,13.13
2023-12-11T05:09:41.070Z,27.40
2023-12-11T05:12:43.927Z,25.27
2023-12-11T05:15:46.548Z,25.10
2023-12-11T05:18:49.356Z,23.13
2023-12-11T05:21:53.870Z,16.63
2023-12-11T05:24:58.797Z,20.50
2023-12-11T05:28:01.336Z,23.77
2023-12-11T05:31:04.268Z,13.75
2023-12-11T05:34:06.865Z,15.57
2023-12-11T05:37:09.703Z,20.80
2023-12-11T05:40:22.135Z,24.00
2023-12-11T05:43:26.571Z,22.35
2023-12-11T05:46:28.943Z,25.23
2023-12-11T05:49:31.897Z,25.50
2023-12-11T05:52:34.499Z,18.13
2023-12-11T05:55:38.060Z,20.48
2023-12-11T05:58:41.129Z,20.83
2023-12-11T06:01:44.297Z,20.40
2023-12-11T06:04:47.187Z,15.23
2023-12-11T06:07:49.973Z,16.33
2023-12-11T06:10:53.018Z,24.05
2023-12-11T06:13:55.413Z,23.80
2023-12-11T06:16:58.159Z,25.73
2023-12-11T06:20:00.742Z,22.30
2023-12-11T06:23:04.351Z,26.13
2023-12-11T06:26:07.768Z,22.13
2023-12-11T06:29:10.914Z,27.30
2023-12-11T06:32:13.598Z,28.42
2023-12-11T06:35:17.039Z,21.33
2023-12-11T06:38:19.651Z,22.80
2023-12-11T06:41:22.323Z,22.33
2023-12-11T06:44:24.834Z,18.65
2023-12-11T06:47:27.716Z,29.40
2023-12-11T06:50:30.217Z,32.10
2023-12-11T06:53:32.985Z,21.87
2023-12-11T06:56:35.508Z,20.77
2023-12-11T06:59:38.484Z,9.07
2023-12-11T07:02:40.999Z,16.75
2023-12-11T07:05:47.507Z,17.90
2023-12-11T07:08:50.011Z,25.10
2023-12-11T07:11:53.087Z,21.73
2023-12-11T07:14:55.542Z,24.85
2023-12-11T07:17:59.057Z,21.85
2023-12-11T07:21:01.930Z,16.63
2023-12-11T07:24:05.254Z,19.30
2023-12-11T07:27:08.358Z,18.67
2023-12-11T07:30:12.618Z,21.00
2023-12-11T07:33:15.350Z,20.17
2023-12-11T07:36:18.340Z,22.67
2023-12-11T07:39:20.804Z,21.33
2023-12-11T07:42:23.526Z,18.55
2023-12-11T07:45:25.932Z,20.20
2023-12-11T07:48:29.786Z,22.27
2023-12-11T07:51:32.444Z,27.30
2023-12-11T07:54:36.107Z,19.50
2023-12-11T07:57:40.974Z,20.45
2023-12-11T08:00:44.155Z,22.35
2023-12-11T08:03:47.506Z,22.13
2023-12-11T08:06:51.456Z,25.33
2023-12-11T08:09:54.323Z,20.13
2023-12-11T08:12:56.796Z,22.70
2023-12-11T08:15:59.578Z,16.77
2023-12-11T08:19:02.302Z,23.40
2023-12-11T08:22:05.531Z,18.03
2023-12-11T08:25:08.347Z,21.47
2023-12-11T08:28:11.134Z,18.67
2023-12-11T08:31:13.665Z,8.65
2023-12-11T08:34:16.875Z,19.02
2023-12-11T08:37:19.521Z,16.97
2023-12-11T08:40:22.333Z,23.83
2023-12-11T08:43:24.947Z,16.77
2023-12-11T08:46:27.701Z,21.62
2023-12-11T08:49:30.256Z,19.00
2023-12-11T08:52:33.028Z,21.70
2023-12-11T08:55:35.989Z,15.80
2023-12-11T08:58:38.741Z,18.75
2023-12-11T09:01:41.385Z,19.60
2023-12-11T09:04:44.318Z,19.40
2023-12-11T09:07:46.924Z,33.80
2023-12-11T09:10:49.694Z,22.57
2023-12-11T09:13:52.136Z,15.55
2023-12-11T09:16:54.844Z,20.33
2023-12-11T09:19:57.381Z,31.33
2023-12-11T09:23:00.192Z,22.10
2023-12-11T09:26:02.646Z,22.83
2023-12-11T09:29:05.381Z,12.70
2023-12-11T09:32:07.859Z,18.42
2023-12-11T09:35:11.518Z,18.75
2023-12-11T09:38:14.143Z,17.37
2023-12-11T09:41:16.883Z,17.27
2023-12-11T09:44:20.519Z,16.20
2023-12-11T09:47:33.294Z,15.75
2023-12-11T09:50:40.963Z,16.17
2023-12-11T09:53:44.228Z,24.00
2023-12-11T09:56:46.942Z,19.67
2023-12-11T09:59:51.812Z,17.48
2023-12-11T10:02:55.327Z,22.23
2023-12-11T10:06:01.007Z,15.18
2023-12-11T10:09:05.326Z,16.93
2023-12-11T10:12:08.299Z,15.27
2023-12-11T10:15:10.740Z,20.77
2023-12-11T10:18:13.955Z,20.52
2023-12-11T10:21:16.653Z,21.65
2023-12-11T10:24:19.548Z,17.03
2023-12-11T10:27:26.367Z,24.73
2023-12-11T10:30:29.087Z,19.00
2023-12-11T10:33:32.593Z,18.98
2023-12-11T10:36:35.504Z,26.67
2023-12-11T10:39:38.323Z,22.67
2023-12-11T10:42:41.749Z,23.97
2023-12-11T10:45:48.148Z,21.05
2023-12-11T10:48:53.257Z,16.50
2023-12-11T10:51:56.715Z,25.42
2023-12-11T10:55:00.634Z,25.43
2023-12-11T10:58:03.501Z,23.60
2023-12-11T11:01:07.216Z,24.27
2023-12-11T11:04:10.373Z,24.17
2023-12-11T11:07:24.680Z,21.20
2023-12-11T11:10:33.610Z,17.67
2023-12-11T11:13:50.855Z,27.13
2023-12-11T11:16:53.600Z,17.35
2023-12-11T11:20:11.790Z,16.27
2023-12-11T11:23:17.573Z,17.62
2023-12-11T11:26:46.598Z,18.40
2023-12-11T11:29:49.075Z,19.70
2023-12-11T11:32:54.589Z,17.10
2023-12-11T11:35:58.069Z,16.55
2023-12-11T11:39:02.798Z,18.83
2023-12-11T11:42:08.019Z,15.83
2023-12-11T11:45:11.163Z,17.90
2023-12-11T11:48:13.756Z,17.70
2023-12-11T11:51:18.346Z,22.60
2023-12-11T11:54:24.837Z,18.02
2023-12-11T11:57:29.451Z,19.07
2023-12-11T12:00:35.037Z,20.20
2023-12-11T12:03:44.947Z,16.77
2023-12-11T12:06:47.493Z,18.37
2023-12-11T12:09:53.841Z,9.50
2023-12-11T12:13:00.619Z,16.03
2023-12-11T12:16:04.000Z,13.10
2023-12-11T12:19:06.986Z,15.80
2023-12-11T12:22:14.251Z,15.35
2023-12-11T12:25:17.478Z,10.85
2023-12-11T12:28:20.778Z,13.37
2023-12-11T12:31:23.452Z,13.60
2023-12-11T12:34:27.258Z,14.85
2023-12-11T12:37:30.590Z,16.87
2023-12-11T12:40:37.612Z,16.87
2023-12-11T12:43:40.070Z,14.63
2023-12-11T12:46:43.666Z,18.70
2023-12-11T12:49:47.088Z,14.75
2023-12-11T12:52:50.004Z,14.90
2023-12-11T12:55:52.607Z,12.63
2023-12-11T12:58:57.231Z,14.17
2023-12-11T13:01:59.880Z,18.47
2023-12-11T13:05:06.848Z,14.87
2023-12-11T13:08:09.430Z,18.55
2023-12-11T13:11:13.223Z,12.63
2023-12-11T13:14:15.688Z,12.73
2023-12-11T13:17:18.420Z,11.60
2023-12-11T13:20:21.372Z,11.25
2023-12-11T13:23:25.201Z,15.35
2023-12-11T13:26:27.794Z,14.85
2023-12-11T13:29:30.505Z,15.93
2023-12-11T13:32:32.984Z,16.83
2023-12-11T13:35:35.881Z,16.27
2023-12-11T13:38:38.544Z,13.70
2023-12-11T13:41:41.259Z,19.02
2023-12-11T13:44:43.863Z,16.27
2023-12-11T13:47:46.850Z,22.30
2023-12-11T13:50:49.365Z,25.27
2023-12-11T13:53:52.027Z,24.73
2023-12-11T13:56:54.472Z,15.65
2023-12-11T13:59:57.198Z,16.97
2023-12-11T14:03:03.828Z,14.07
2023-12-11T14:06:07.742Z,20.25
2023-12-11T14:09:10.997Z,12.77
2023-12-11T14:12:13.915Z,20.88
2023-12-11T14:15:16.528Z,16.50
2023-12-11T14:18:19.684Z,18.97
2023-12-11T14:21:22.297Z,15.32
2023-12-11T14:24:26.999Z,18.77
2023-12-11T14:27:30.030Z,11.73
2023-12-11T14:30:34.290Z,21.60
2023-12-11T14:33:36.901Z,18.33
2023-12-11T14:36:39.623Z,20.80
2023-12-11T14:39:43.147Z,15.25
2023-12-11T14:42:46.040Z,21.30
2023-12-11T14:45:48.515Z,25.63
2023-12-11T14:48:51.719Z,24.83
2023-12-11T14:51:54.292Z,22.70
2023-12-11T14:54:57.428Z,23.60
2023-12-11T14:57:59.873Z,11.70
2023-12-11T15:01:02.997Z,41.63
2023-12-11T15:04:06.001Z,37.83
2023-12-11T15:07:08.758Z,46.88
2023-12-11T15:10:11.270Z,33.88
2023-12-11T15:13:13.978Z,18.23
2023-12-11T15:16:16.719Z,13.97
2023-12-11T15:19:19.546Z,23.90
2023-12-11T15:22:22.094Z,17.33
2023-12-11T15:25:27.127Z,31.35
2023-12-11T15:28:31.196Z,38.03
2023-12-11T15:31:34.562Z,39.63
2023-12-11T15:34:38.298Z,22.83
2023-12-11T15:37:41.026Z,23.40
2023-12-11T15:40:43.571Z,27.58
2023-12-11T15:43:49.708Z,13.65
2023-12-11T15:46:52.146Z,20.40
2023-12-11T15:49:54.997Z,6.10
2023-12-11T15:52:58.839Z,26.15
2023-12-11T15:56:01.560Z,26.58
2023-12-11T15:59:04.017Z,21.92
2023-12-11T16:02:06.933Z,9.50
2023-12-11T16:05:09.880Z,33.40
2023-12-11T16:08:12.686Z,24.52
2023-12-11T16:11:15.949Z,22.30
2023-12-11T16:14:18.361Z,29.17
2023-12-11T16:17:21.113Z,23.23
2023-12-11T16:20:23.560Z,29.93
2023-12-11T16:23:26.697Z,33.72
2023-12-11T16:26:29.198Z,72.00
2023-12-11T16:29:35.173Z,42.78
2023-12-11T16:32:37.826Z,28.67
2023-12-11T16:35:40.669Z,31.73
2023-12-11T16:38:43.704Z,32.65
2023-12-11T16:41:46.589Z,24.35
2023-12-11T16:44:49.147Z,33.40
2023-12-11T16:47:55.057Z,33.87
2023-12-11T16:50:57.636Z,32.07
2023-12-11T16:54:00.337Z,45.25
2023-12-11T16:57:02.781Z,36.55
2023-12-11T17:00:07.112Z,22.70
2023-12-11T17:03:09.552Z,26.57
2023-12-11T17:06:19.454Z,26.17
2023-12-11T17:09:21.920Z,31.15
2023-12-11T17:12:24.754Z,38.17
2023-12-11T17:15:27.136Z,41.13
2023-12-11T17:18:30.171Z,38.50
2023-12-11T17:21:34.274Z,39.37
2023-12-11T17:24:39.298Z,19.05
2023-12-11T17:27:41.828Z,39.67
2023-12-11T17:30:45.006Z,89.25
2023-12-11T17:33:47.639Z,49.00
2023-12-11T17:36:50.517Z,63.07
2023-12-11T17:39:54.569Z,51.63
2023-12-11T17:42:57.535Z,40.60
2023-12-11T17:46:00.311Z,23.65
2023-12-11T17:49:04.817Z,38.23
2023-12-11T17:52:07.392Z,43.20
2023-12-11T17:55:10.275Z,43.22
2023-12-11T17:58:12.838Z,31.85
2023-12-11T18:01:15.658Z,36.17
2023-12-11T18:04:18.490Z,33.70
2023-12-11T18:07:23.266Z,36.67
2023-12-11T18:10:26.123Z,33.20
2023-12-11T18:13:28.684Z,32.70
2023-12-11T18:16:33.505Z,18.75
2023-12-11T18:19:36.037Z,30.43
2023-12-11T18:22:38.886Z,21.53
2023-12-11T18:25:41.402Z,34.13
2023-12-11T18:28:44.298Z,39.90
2023-12-11T18:31:46.673Z,42.50
2023-12-11T18:34:54.598Z,38.37
2023-12-11T18:37:57.713Z,20.87
2023-12-11T18:41:00.665Z,30.27
2023-12-11T18:44:03.075Z,30.98
2023-12-11T18:47:06.000Z,11.38
2023-12-11T18:50:09.487Z,30.10
2023-12-11T18:53:12.541Z,23.90
2023-12-11T18:56:23.228Z,34.72
2023-12-11T18:59:26.269Z,31.92
2023-12-11T19:02:28.749Z,31.92
2023-12-11T19:05:31.575Z,16.60
2023-12-11T19:08:34.435Z,35.00
2023-12-11T19:11:37.125Z,16.73
2023-12-11T19:14:39.564Z,31.87
2023-12-11T19:17:43.195Z,16.62
2023-12-11T19:20:46.032Z,39.87
2023-12-11T19:23:50.911Z,36.10
2023-12-11T19:26:53.407Z,38.13
2023-12-11T19:29:56.237Z,28.20
2023-12-11T19:32:58.673Z,35.08
2023-12-11T19:36:04.118Z,32.10
2023-12-11T19:39:06.789Z,30.27
2023-12-11T19:42:09.756Z,33.05
2023-12-11T19:45:13.728Z,28.98
2023-12-11T19:48:18.841Z,28.02
2023-12-11T19:51:21.659Z,32.00
2023-12-11T19:54:24.321Z,33.00
2023-12-11T19:57:26.789Z,32.30
2023-12-11T20:00:29.808Z,36.30
2023-12-11T20:03:32.824Z,34.15
2023-12-11T20:06:35.423Z,45.97
2023-12-11T20:09:38.152Z,48.13
2023-12-11T20:12:40.553Z,45.92
2023-12-11T20:15:43.265Z,37.72
2023-12-11T20:18:46.066Z,39.55
2023-12-11T20:21:49.312Z,54.80
2023-12-11T20:24:51.752Z,62.20
2023-12-11T20:27:54.455Z,73.93
2023-12-11T20:30:57.782Z,44.60
2023-12-11T20:34:00.620Z,32.00
2023-12-11T20:37:03.376Z,34.30
2023-12-11T20:40:07.104Z,31.37
2023-12-11T20:43:09.852Z,34.60
2023-12-11T20:46:12.648Z,32.20
2023-12-11T20:49:16.759Z,79.47
2023-12-11T20:52:19.684Z,73.57
2023-12-11T20:55:22.410Z,44.83
2023-12-11T20:58:25.138Z,43.42
2023-12-11T21:01:28.734Z,38.42
2023-12-11T21:04:31.592Z,41.95
2023-12-11T21:07:34.622Z,42.10
2023-12-11T21:10:37.550Z,36.93
2023-12-11T21:13:40.016Z,49.90
2023-12-11T21:16:42.739Z,54.88
2023-12-11T21:19:45.872Z,160.00
2023-12-11T21:22:48.800Z,190.83
2023-12-11T21:25:51.365Z,197.87
2023-12-11T21:28:54.621Z,122.22
2023-12-11T21:31:57.173Z,71.15
2023-12-11T21:35:00.366Z,60.47
2023-12-11T21:38:02.769Z,51.77
2023-12-11T21:41:08.307Z,41.80
2023-12-11T21:44:11.560Z,24.33
2023-12-11T21:47:14.738Z,42.88
2023-12-11T21:50:17.300Z,32.50
2023-12-11T21:53:20.199Z,139.03
2023-12-11T21:56:25.249Z,94.77
2023-12-11T21:59:35.366Z,91.97
2023-12-11T22:02:42.500Z,71.20
2023-12-11T22:05:46.273Z,73.43
2023-12-11T22:08:49.207Z,64.10
2023-12-11T22:11:51.919Z,69.70
2023-12-11T22:14:54.315Z,55.67
2023-12-11T22:17:57.035Z,70.60
2023-12-11T22:20:59.490Z,61.53
2023-12-11T22:24:02.173Z,58.13
2023-12-11T22:27:04.829Z,75.57
2023-12-11T22:30:08.364Z,63.97
2023-12-11T22:33:10.794Z,62.53
2023-12-11T22:36:21.313Z,63.83
2023-12-11T22:39:23.665Z,57.83
2023-12-11T22:42:26.326Z,61.00
2023-12-11T22:45:28.738Z,65.80
2023-12-11T22:48:31.467Z,65.00
2023-12-11T22:51:33.909Z,53.85
2023-12-11T22:54:36.579Z,54.73
2023-12-11T22:57:40.309Z,54.97
2023-12-11T23:00:43.648Z,53.95
2023-12-11T23:03:46.170Z,56.33
2023-12-11T23:06:48.832Z,54.53
2023-12-11T23:09:51.381Z,52.10
2023-12-11T23:12:54.093Z,43.83
2023-12-11T23:15:56.556Z,44.00
2023-12-11T23:19:01.963Z,45.67
2023-12-11T23:22:04.628Z,39.88
2023-12-11T23:25:07.616Z,35.83
2023-12-11T23:28:10.079Z,40.73
2023-12-11T23:31:12.760Z,39.53
2023-12-11T23:34:15.841Z,35.60
2023-12-11T23:37:18.697Z,42.33
2023-12-11T23:40:21.544Z,37.03
2023-12-11T23:43:24.557Z,33.70
2023-12-11T23:46:30.203Z,32.40
2023-12-11T23:49:33.167Z,29.90
2023-12-11T23:52:35.687Z,37.40
2023-12-11T23:55:39.183Z,28.50
2023-12-11T23:58:41.591Z,27.87
